Time;durP1;ratioP1;P1;durP2;ratioP2;P2;SDS_P1;SDS_P2;PMS_P1;PMS_P2;Temp;Humidity;BMP_temperature;BMP_pressure;BME280_temperature;BME280_humidity;BME280_pressure;Samples;Min_cycle;Max_cycle;Signal;HPM_P1;HPM_P2
2023/03/22 00:01:09;;;;;;;5.00;3.13;;;10.10;99.90;;;;;;5073242;28;20081;-65
2023/03/22 00:03:35;;;;;;;5.97;3.10;;;10.10;99.90;;;;;;5072938;28;20047;-65
2023/03/22 00:06:00;;;;;;;5.13;2.67;;;10.10;99.90;;;;;;5073175;28;20472;-65
2023/03/22 00:08:26;;;;;;;8.43;4.18;;;10.10;99.90;;;;;;5073168;28;20083;-65
2023/03/22 00:10:51;;;;;;;6.13;3.35;;;10.10;99.90;;;;;;5073047;28;20063;-65
2023/03/22 00:13:18;;;;;;;3.72;2.42;;;10.10;99.90;;;;;;5072989;28;20132;-65
2023/03/22 00:15:47;;;;;;;5.53;3.22;;;10.10;99.90;;;;;;5072989;28;20124;-65
2023/03/22 00:18:13;;;;;;;6.20;3.25;;;10.10;99.90;;;;;;5072959;28;20119;-65
2023/03/22 00:20:47;;;;;;;7.88;3.75;;;10.20;99.90;;;;;;5072651;28;20115;-65
2023/03/22 00:23:12;;;;;;;9.25;2.88;;;10.10;99.90;;;;;;5071412;28;20048;-65
2023/03/22 00:25:38;;;;;;;4.80;3.08;;;10.10;99.90;;;;;;5071363;28;20044;-65
2023/03/22 00:28:04;;;;;;;11.30;3.47;;;10.10;99.90;;;;;;5072591;28;20083;-65
2023/03/22 00:30:29;;;;;;;6.95;3.42;;;10.10;99.90;;;;;;5072883;28;20128;-65
2023/03/22 00:32:55;;;;;;;7.22;3.22;;;10.10;99.90;;;;;;5071310;28;20076;-65
2023/03/22 00:35:20;;;;;;;8.85;4.03;;;10.00;99.90;;;;;;5072826;28;20052;-65
2023/03/22 00:37:50;;;;;;;6.63;3.50;;;10.00;99.90;;;;;;5072531;28;20045;-65
2023/03/22 00:40:16;;;;;;;6.55;3.28;;;10.00;99.90;;;;;;5072762;28;20041;-65
2023/03/22 00:42:42;;;;;;;5.90;3.30;;;9.90;99.90;;;;;;5072714;28;20499;-65
2023/03/22 00:45:11;;;;;;;6.07;3.17;;;9.90;99.90;;;;;;5072708;28;20087;-65
2023/03/22 00:47:37;;;;;;;5.10;2.80;;;9.90;99.90;;;;;;5074631;28;20404;-65
2023/03/22 00:50:04;;;;;;;7.72;2.83;;;9.80;99.90;;;;;;5076402;28;20048;-65
2023/03/22 00:52:30;;;;;;;5.88;3.58;;;9.90;99.90;;;;;;5076171;28;20127;-65
2023/03/22 00:54:56;;;;;;;5.47;3.13;;;9.80;99.90;;;;;;5076333;28;20032;-65
2023/03/22 00:57:22;;;;;;;10.15;3.10;;;9.80;99.90;;;;;;5076538;28;20032;-65
2023/03/22 00:59:48;;;;;;;11.27;2.95;;;9.80;99.90;;;;;;5076198;28;20480;-65
2023/03/22 01:02:14;;;;;;;10.27;3.40;;;9.80;99.90;;;;;;5076436;28;20047;-65
2023/03/22 01:04:45;;;;;;;4.90;2.55;;;9.80;99.90;;;;;;5076121;28;20048;-65
2023/03/22 01:07:16;;;;;;;4.00;2.10;;;9.80;99.90;;;;;;5058232;28;20045;-65
2023/03/22 01:09:44;;;;;;;7.53;2.75;;;9.80;99.90;;;;;;5076264;28;20041;-65
2023/03/22 01:12:11;;;;;;;2.72;1.88;;;9.70;99.90;;;;;;5076150;28;20434;-65
2023/03/22 01:14:36;;;;;;;3.85;2.10;;;9.70;99.90;;;;;;5076220;28;20079;-65
2023/03/22 01:17:03;;;;;;;4.43;2.65;;;9.70;99.90;;;;;;5075851;28;20064;-65
2023/03/22 01:19:28;;;;;;;6.03;2.63;;;9.70;99.90;;;;;;5076114;28;20103;-65
2023/03/22 01:21:54;;;;;;;5.13;2.15;;;9.80;99.90;;;;;;5076084;28;20071;-65
2023/03/22 01:24:20;;;;;;;2.55;1.60;;;9.70;99.90;;;;;;5076036;28;20043;-65
2023/03/22 01:26:45;;;;;;;10.57;2.50;;;9.70;99.90;;;;;;5074518;28;20400;-65
2023/03/22 01:29:11;;;;;;;4.38;2.20;;;9.70;99.90;;;;;;5075798;28;20047;-65
2023/03/22 01:31:37;;;;;;;6.30;1.70;;;9.70;99.90;;;;;;5075439;28;20093;-65
2023/03/22 01:34:03;;;;;;;4.13;1.73;;;10.20;99.90;;;;;;5075880;28;20036;-66
2023/03/22 01:36:29;;;;;;;3.15;1.90;;;10.70;99.90;;;;;;5075840;28;20499;-65
2023/03/22 01:38:54;;;;;;;2.63;1.30;;;9.70;99.90;;;;;;5057906;28;20071;-65
2023/03/22 01:41:20;;;;;;;4.22;1.55;;;9.80;99.90;;;;;;5075772;28;20090;-65
2023/03/22 01:44:10;;;;;;;6.38;2.15;;;9.70;99.90;;;;;;5075677;28;20028;-65
2023/03/22 01:46:35;;;;;;;3.63;1.75;;;9.70;99.90;;;;;;5075606;28;20064;-65
2023/03/22 01:49:02;;;;;;;3.40;2.00;;;10.20;99.90;;;;;;5075274;28;20518;-65
2023/03/22 01:51:28;;;;;;;2.42;1.27;;;9.60;99.90;;;;;;5074097;28;20041;-64
2023/03/22 01:53:57;;;;;;;4.70;1.70;;;9.70;99.90;;;;;;5075608;28;20048;-64
2023/03/22 01:56:25;;;;;;;4.43;1.70;;;9.60;99.90;;;;;;5075512;28;20391;-64
2023/03/22 01:58:53;;;;;;;4.15;1.75;;;9.70;99.90;;;;;;5074409;28;20040;-65
2023/03/22 02:01:19;;;;;;;1.92;1.38;;;9.60;99.90;;;;;;5075365;28;20043;-65
2023/03/22 02:04:01;;;;;;;3.70;1.70;;;9.60;99.90;;;;;;5075072;28;20098;-65
2023/03/22 02:06:28;;;;;;;6.80;1.90;;;9.60;99.90;;;;;;5057072;28;20044;-65
2023/03/22 02:08:56;;;;;;;4.97;1.80;;;9.60;99.90;;;;;;5075299;28;20397;-65
2023/03/22 02:11:37;;;;;;;3.53;1.52;;;9.60;99.90;;;;;;5075105;28;20036;-65
2023/03/22 02:14:08;;;;;;;3.75;1.50;;;9.60;99.90;;;;;;5075189;28;20048;-65
2023/03/22 02:16:52;;;;;;;;;;;9.60;99.90;;;;;;5075439;28;20037;-65
2023/03/22 02:19:28;;;;;;;3.15;1.45;;;9.60;99.90;;;;;;5075097;28;19955;-65
2023/03/22 02:22:37;;;;;;;2.80;1.45;;;9.50;99.90;;;;;;5074785;28;20044;-65
2023/03/22 02:25:21;;;;;;;5.28;1.25;;;9.50;99.90;;;;;;5067047;28;20044;-65
2023/03/22 02:28:15;;;;;;;8.68;1.33;;;9.50;99.90;;;;;;5074831;28;20265;-64
2023/03/22 02:31:18;;;;;;;4.28;1.48;;;9.50;99.90;;;;;;5074530;28;20123;-64
2023/03/22 02:34:01;;;;;;;3.38;1.60;;;9.50;99.90;;;;;;5074553;28;20079;-64
2023/03/22 02:36:53;;;;;;;5.45;2.08;;;9.50;99.90;;;;;;5074812;28;20100;-64
2023/03/22 02:39:24;;;;;;;5.30;1.40;;;9.50;99.90;;;;;;5074638;28;20059;-65
2023/03/22 02:41:49;;;;;;;3.33;1.80;;;9.50;99.90;;;;;;5074332;28;20077;-65
2023/03/22 02:44:21;;;;;;;3.33;1.70;;;9.50;99.90;;;;;;5056340;28;20131;-65
2023/03/22 02:46:59;;;;;;;2.50;1.10;;;9.50;99.90;;;;;;5074523;28;20067;-64
2023/03/22 02:49:46;;;;;;;3.70;1.58;;;9.50;99.90;;;;;;5074483;28;20090;-64
2023/03/22 02:52:41;;;;;;;10.13;1.80;;;9.50;99.90;;;;;;5056191;28;20119;-65
2023/03/22 02:55:32;;;;;;;5.10;1.90;;;9.50;99.90;;;;;;5071989;28;20055;-65
2023/03/22 02:58:02;;;;;;;2.97;1.17;;;9.50;99.90;;;;;;5056234;28;20044;-65
2023/03/22 03:00:29;;;;;;;8.85;2.10;;;9.90;99.90;;;;;;5074186;28;20052;-65
2023/03/22 03:03:01;;;;;;;5.32;1.50;;;9.50;99.90;;;;;;5074224;28;20044;-65
2023/03/22 03:05:30;;;;;;;1.77;1.10;;;9.50;99.90;;;;;;5073772;28;20124;-65
2023/03/22 03:07:59;;;;;;;4.50;1.85;;;9.40;99.90;;;;;;5073826;28;20107;-65
2023/03/22 03:10:25;;;;;;;4.47;2.33;;;9.50;99.90;;;;;;5073173;28;20039;-64
2023/03/22 03:12:51;;;;;;;6.03;1.73;;;9.40;99.90;;;;;;5073820;28;20052;-64
2023/03/22 03:15:19;;;;;;;1.55;1.23;;;9.70;99.90;;;;;;5072419;28;20452;-65
2023/03/22 03:18:06;;;;;;;4.05;1.52;;;9.50;99.90;;;;;;5073872;28;20480;-65
2023/03/22 03:20:48;;;;;;;3.00;1.50;;;9.50;99.90;;;;;;5073561;28;20045;-65
2023/03/22 03:23:44;;;;;;;2.92;1.40;;;9.50;99.90;;;;;;5073501;28;20147;-65
2023/03/22 03:26:36;;;;;;;5.88;1.80;;;9.50;99.90;;;;;;5073781;28;20044;-65
2023/03/22 03:29:30;;;;;;;4.07;1.73;;;9.50;99.90;;;;;;5073726;28;20110;-65
2023/03/22 03:32:04;;;;;;;4.53;1.38;;;9.50;99.90;;;;;;5073636;28;20037;-65
2023/03/22 03:34:40;;;;;;;4.18;1.55;;;10.10;99.90;;;;;;5055487;28;20033;-65
2023/03/22 03:37:16;;;;;;;3.08;1.23;;;9.50;99.90;;;;;;5073609;28;20077;-65
2023/03/22 03:39:54;;;;;;;4.28;1.50;;;9.50;99.90;;;;;;5073226;28;20369;-64
2023/03/22 03:42:23;;;;;;;5.05;1.27;;;9.50;99.90;;;;;;5073496;28;20083;-65
2023/03/22 03:44:49;;;;;;;4.78;1.40;;;9.50;99.90;;;;;;5073393;28;20119;-64
2023/03/22 03:47:15;;;;;;;3.55;1.30;;;9.50;99.90;;;;;;5073366;28;20464;-65
2023/03/22 03:49:41;;;;;;;7.90;1.50;;;9.50;99.90;;;;;;5073294;28;20036;-65
2023/03/22 03:52:06;;;;;;;6.47;1.45;;;9.50;99.90;;;;;;5073365;28;20040;-64
2023/03/22 03:54:32;;;;;;;5.10;1.58;;;9.50;99.90;;;;;;5073510;28;20036;-65
2023/03/22 03:56:58;;;;;;;4.50;1.70;;;9.50;99.90;;;;;;5073323;28;20036;-65
2023/03/22 03:59:23;;;;;;;3.20;1.08;;;9.50;99.90;;;;;;5073225;28;20499;-64
2023/03/22 04:01:50;;;;;;;8.07;1.77;;;9.50;99.90;;;;;;5072904;28;20127;-64
2023/03/22 04:04:26;;;;;;;2.15;1.10;;;9.40;99.90;;;;;;5054868;28;20078;-65
2023/03/22 04:06:57;;;;;;;2.58;1.10;;;9.40;99.90;;;;;;5073082;28;20062;-64
2023/03/22 04:09:25;;;;;;;3.45;1.63;;;9.40;99.90;;;;;;5073123;28;20389;-64
2023/03/22 04:11:51;;;;;;;3.47;1.40;;;9.40;99.90;;;;;;5072988;28;20462;-64
2023/03/22 04:14:17;;;;;;;7.45;1.63;;;10.40;99.90;;;;;;5073076;28;20068;-65
2023/03/22 04:16:42;;;;;;;1.98;1.15;;;9.40;99.90;;;;;;5072936;28;20077;-65
2023/03/22 04:19:08;;;;;;;6.30;1.98;;;9.40;99.90;;;;;;5072754;28;20044;-66
2023/03/22 04:21:33;;;;;;;2.25;1.05;;;9.40;99.90;;;;;;5072595;28;20066;-65
2023/03/22 04:23:59;;;;;;;7.13;1.10;;;9.40;99.90;;;;;;5072693;28;20033;-65
2023/03/22 04:26:25;;;;;;;1.98;1.27;;;9.40;99.90;;;;;;5072946;28;20045;-65
2023/03/22 04:28:51;;;;;;;4.97;1.50;;;9.40;99.90;;;;;;5072570;28;20127;-65
2023/03/22 04:31:17;;;;;;;5.53;1.67;;;9.40;99.90;;;;;;5072861;28;20066;-64
2023/03/22 04:33:45;;;;;;;1.55;1.15;;;9.50;99.90;;;;;;5072520;28;20033;-65
2023/03/22 04:36:16;;;;;;;3.13;1.83;;;9.70;99.90;;;;;;5072550;28;20083;-64
2023/03/22 04:38:42;;;;;;;6.07;2.05;;;9.50;99.90;;;;;;5072522;28;20052;-64
2023/03/22 04:41:09;;;;;;;4.28;1.90;;;9.40;99.90;;;;;;5072472;28;20094;-65
2023/03/22 04:43:38;;;;;;;4.55;2.05;;;9.50;99.90;;;;;;5072423;28;20040;-64
2023/03/22 04:46:08;;;;;;;2.97;2.00;;;9.50;99.90;;;;;;5072725;28;20444;-64
2023/03/22 04:48:39;;;;;;;3.92;2.78;;;9.50;99.90;;;;;;5072443;28;20041;-67
2023/03/22 04:51:06;;;;;;;5.15;2.90;;;9.60;99.90;;;;;;5072443;28;20071;-64
2023/03/22 04:53:37;;;;;;;4.20;2.75;;;9.60;99.90;;;;;;5072549;28;20114;-65
2023/03/22 04:56:05;;;;;;;4.78;2.97;;;9.60;99.90;;;;;;5072679;28;20048;-64
2023/03/22 04:58:32;;;;;;;8.02;3.35;;;9.60;99.90;;;;;;5072630;28;20033;-65
2023/03/22 05:00:58;;;;;;;5.68;2.70;;;9.70;99.90;;;;;;5054272;28;20036;-65
2023/03/22 05:03:24;;;;;;;5.40;2.90;;;9.70;99.90;;;;;;5072627;28;20059;-64
2023/03/22 05:05:55;;;;;;;7.82;3.33;;;9.70;99.90;;;;;;5072088;28;20105;-65
2023/03/22 05:08:23;;;;;;;13.10;4.03;;;9.70;99.90;;;;;;5072515;28;20120;-65
2023/03/22 05:10:53;;;;;;;7.32;3.78;;;9.70;99.90;;;;;;5072369;28;20079;-65
2023/03/22 05:13:20;;;;;;;8.40;4.30;;;9.80;99.90;;;;;;5072411;28;20075;-65
2023/03/22 05:15:47;;;;;;;15.02;4.20;;;9.80;99.90;;;;;;5072139;28;20534;-65
2023/03/22 05:18:14;;;;;;;11.15;4.40;;;9.80;99.90;;;;;;5072403;28;20037;-65
2023/03/22 05:20:40;;;;;;;7.05;3.67;;;9.80;99.90;;;;;;5072420;28;20482;-67
2023/03/22 05:23:08;;;;;;;9.77;3.60;;;9.80;99.90;;;;;;5072365;28;20111;-64
2023/03/22 05:25:34;;;;;;;8.20;3.90;;;9.90;99.90;;;;;;5072344;28;20484;-65
2023/03/22 05:28:00;;;;;;;13.32;4.60;;;9.90;99.90;;;;;;5072030;28;20116;-65
2023/03/22 05:30:30;;;;;;;9.40;4.50;;;9.90;99.90;;;;;;5072292;28;20120;-65
2023/03/22 05:33:02;;;;;;;7.70;4.47;;;9.90;99.90;;;;;;5072228;28;20036;-64
2023/03/22 05:35:32;;;;;;;6.60;3.67;;;9.90;99.90;;;;;;5074991;28;20317;-65
2023/03/22 05:37:58;;;;;;;8.07;4.57;;;9.90;99.90;;;;;;5057575;28;20089;-65
2023/03/22 05:40:24;;;;;;;7.88;4.55;;;9.90;99.90;;;;;;5075812;28;20032;-65
2023/03/22 05:42:50;;;;;;;5.72;3.83;;;9.90;99.90;;;;;;5075698;28;20549;-65
2023/03/22 05:45:17;;;;;;;10.20;4.38;;;10.00;99.90;;;;;;5075461;28;20472;-66
2023/03/22 05:47:43;;;;;;;8.88;5.30;;;9.90;99.90;;;;;;5040883;28;20040;-64
2023/03/22 05:50:11;;;;;;;9.32;5.20;;;10.00;99.90;;;;;;5075448;28;20103;-65
2023/03/22 05:52:38;;;;;;;7.97;4.70;;;10.00;99.90;;;;;;5057320;28;20485;-65
2023/03/22 05:55:05;;;;;;;11.73;5.22;;;10.00;99.90;;;;;;5057133;28;20082;-65
2023/03/22 05:57:31;;;;;;;9.02;4.30;;;10.00;99.90;;;;;;5056971;28;20135;-65
2023/03/22 05:59:57;;;;;;;6.32;4.03;;;10.00;99.90;;;;;;5075336;28;20123;-65
2023/03/22 06:02:22;;;;;;;5.43;3.97;;;10.00;99.90;;;;;;5075383;28;20036;-65
2023/03/22 06:04:48;;;;;;;10.57;4.57;;;10.40;99.90;;;;;;5074922;28;20190;-68
2023/03/22 06:07:14;;;;;;;9.50;4.30;;;10.00;99.90;;;;;;5075316;28;20040;-65
2023/03/22 06:09:40;;;;;;;7.70;4.70;;;10.00;99.90;;;;;;5075232;28;20071;-64
2023/03/22 06:12:06;;;;;;;10.40;4.68;;;10.00;99.90;;;;;;5075194;28;20044;-65
2023/03/22 06:14:31;;;;;;;6.78;4.47;;;10.30;99.90;;;;;;5075095;28;20039;-65
2023/03/22 06:16:57;;;;;;;10.00;4.80;;;10.00;99.90;;;;;;5075134;28;20067;-65
2023/03/22 06:19:24;;;;;;;11.80;5.72;;;10.00;99.90;;;;;;5075101;28;20094;-66
2023/03/22 06:21:51;;;;;;;8.70;5.10;;;10.00;99.90;;;;;;5074987;28;20442;-66
2023/03/22 06:24:17;;;;;;;8.60;3.90;;;10.00;99.90;;;;;;5057088;28;20041;-66
2023/03/22 06:26:43;;;;;;;8.05;4.35;;;10.00;99.90;;;;;;5075151;28;20051;-66
2023/03/22 06:29:09;;;;;;;8.20;4.43;;;10.00;99.90;;;;;;5074553;28;20045;-66
2023/03/22 06:31:35;;;;;;;6.88;3.75;;;10.00;99.90;;;;;;5074397;28;20033;-65
2023/03/22 06:34:01;;;;;;;8.80;4.75;;;10.00;99.90;;;;;;5074526;28;20032;-67
2023/03/22 06:36:26;;;;;;;7.95;4.82;;;10.10;99.90;;;;;;5074686;28;20154;-64
2023/03/22 06:38:52;;;;;;;9.32;4.53;;;10.10;99.90;;;;;;5074589;28;20068;-62
2023/03/22 06:41:18;;;;;;;7.45;4.47;;;10.10;99.90;;;;;;5074255;28;20047;-65
2023/03/22 06:43:44;;;;;;;6.25;3.88;;;10.20;99.90;;;;;;5073083;28;20132;-65
2023/03/22 06:46:10;;;;;;;7.20;4.05;;;10.20;99.90;;;;;;5074418;28;20194;-65
2023/03/22 06:48:35;;;;;;;8.40;4.72;;;10.20;99.90;;;;;;5074162;28;20082;-64
2023/03/22 06:51:01;;;;;;;8.35;4.78;;;10.20;99.90;;;;;;5056100;28;20075;-64
2023/03/22 06:53:27;;;;;;;7.13;4.38;;;10.20;99.90;;;;;;5074298;28;20037;-65
2023/03/22 06:55:52;;;;;;;7.22;3.47;;;10.30;99.90;;;;;;5074272;28;20443;-66
2023/03/22 06:58:18;;;;;;;6.40;3.10;;;10.30;99.90;;;;;;5074264;28;20072;-66
2023/03/22 07:00:44;;;;;;;6.70;4.15;;;10.30;99.90;;;;;;5073870;28;20047;-65
2023/03/22 07:03:09;;;;;;;8.25;3.45;;;10.30;99.90;;;;;;5074061;28;20044;-65
2023/03/22 07:05:35;;;;;;;8.90;4.13;;;10.30;99.90;;;;;;5073721;28;20561;-66
2023/03/22 07:08:01;;;;;;;6.90;4.43;;;10.40;99.90;;;;;;5073761;28;20055;-65
2023/03/22 07:10:28;;;;;;;8.32;3.28;;;10.40;99.90;;;;;;5073751;28;20391;-66
2023/03/22 07:12:54;;;;;;;11.65;4.07;;;10.40;99.90;;;;;;5073688;28;20383;-66
2023/03/22 07:15:23;;;;;;;6.43;3.75;;;10.50;99.90;;;;;;5073934;28;20039;-65
2023/03/22 07:17:50;;;;;;;6.55;3.80;;;10.50;99.90;;;;;;5073884;28;20044;-65
2023/03/22 07:20:16;;;;;;;6.10;3.50;;;10.50;99.90;;;;;;5073600;28;20124;-65
2023/03/22 07:22:41;;;;;;;8.60;3.53;;;10.60;99.90;;;;;;5073723;28;20036;-65
2023/03/22 07:25:07;;;;;;;7.35;3.72;;;10.70;99.90;;;;;;5073442;28;20059;-65
2023/03/22 07:27:33;;;;;;;8.02;4.03;;;10.70;99.90;;;;;;5073675;28;20033;-64
2023/03/22 07:29:59;;;;;;;8.15;4.45;;;10.80;99.90;;;;;;5073726;28;20419;-64
2023/03/22 07:32:24;;;;;;;6.50;3.58;;;10.80;99.90;;;;;;5073307;28;20036;-65
2023/03/22 07:34:50;;;;;;;6.97;3.40;;;10.80;99.90;;;;;;5073586;28;20037;-65
2023/03/22 07:37:16;;;;;;;10.05;3.50;;;10.80;99.90;;;;;;5073304;28;20111;-65
2023/03/22 07:39:41;;;;;;;4.72;3.00;;;10.80;99.90;;;;;;5071954;28;20533;-65
2023/03/22 07:42:08;;;;;;;4.50;2.97;;;10.80;99.90;;;;;;5073445;28;20416;-65
2023/03/22 07:44:34;;;;;;;5.07;3.22;;;10.90;99.90;;;;;;5073336;28;20129;-65
2023/03/22 07:47:00;;;;;;;6.45;3.05;;;11.00;99.90;;;;;;5073290;28;20044;-64
2023/03/22 07:49:26;;;;;;;4.57;2.85;;;11.00;99.90;;;;;;5055084;28;20435;-64
2023/03/22 07:51:52;;;;;;;8.52;2.78;;;11.10;99.90;;;;;;5072886;28;20036;-64
2023/03/22 07:54:17;;;;;;;7.95;3.17;;;11.10;99.90;;;;;;5073237;28;20094;-64
2023/03/22 07:56:46;;;;;;;7.72;2.75;;;11.10;99.90;;;;;;5054446;28;20041;-63
2023/03/22 07:59:12;;;;;;;6.45;2.67;;;12.20;99.90;;;;;;5038338;28;20041;-64
2023/03/22 08:01:38;;;;;;;3.45;2.33;;;11.10;99.90;;;;;;5054932;28;20040;-65
2023/03/22 08:04:04;;;;;;;5.68;2.90;;;11.10;99.90;;;;;;5072909;28;20515;-64
2023/03/22 08:06:31;;;;;;;4.78;2.90;;;11.00;99.90;;;;;;5054795;28;20040;-64
2023/03/22 08:08:57;;;;;;;5.90;2.50;;;11.00;99.90;;;;;;5073090;28;20081;-64
2023/03/22 08:11:23;;;;;;;3.28;2.28;;;10.90;99.90;;;;;;5073045;28;20441;-64
2023/03/22 08:13:49;;;;;;;6.15;2.30;;;10.90;99.90;;;;;;5072828;28;20049;-64
2023/03/22 08:16:15;;;;;;;3.70;2.20;;;11.50;99.90;;;;;;5072621;28;20538;-65
2023/03/22 08:18:40;;;;;;;5.57;1.95;;;10.90;99.90;;;;;;5072927;28;20036;-65
2023/03/22 08:21:06;;;;;;;5.60;3.08;;;10.90;99.90;;;;;;5072910;28;20043;-67
2023/03/22 08:23:32;;;;;;;3.92;2.45;;;10.90;99.90;;;;;;5072591;28;20408;-64
2023/03/22 08:25:57;;;;;;;7.15;3.10;;;11.00;99.90;;;;;;5072468;28;20484;-65
2023/03/22 08:28:23;;;;;;;6.10;2.33;;;11.10;99.90;;;;;;5072826;28;20111;-65
2023/03/22 08:30:49;;;;;;;11.18;2.47;;;11.20;99.90;;;;;;5072474;28;20040;-65
2023/03/22 08:33:15;;;;;;;5.07;2.55;;;11.20;99.90;;;;;;5072540;28;20396;-65
2023/03/22 08:35:41;;;;;;;5.65;2.30;;;11.30;99.90;;;;;;5072786;28;20028;-64
2023/03/22 08:38:06;;;;;;;3.67;2.40;;;11.30;99.90;;;;;;5072805;28;20068;-64
2023/03/22 08:40:32;;;;;;;4.40;2.38;;;11.20;99.90;;;;;;5054848;28;20222;-66
2023/03/22 08:42:58;;;;;;;4.18;2.20;;;11.20;99.90;;;;;;5072463;28;20040;-64
2023/03/22 08:45:24;;;;;;;1.50;1.30;;;11.20;99.90;;;;;;5072790;28;20041;-64
2023/03/22 08:47:50;;;;;;;4.55;2.10;;;11.20;99.90;;;;;;5072636;28;20079;-65
2023/03/22 08:50:16;;;;;;;4.63;2.38;;;11.20;99.90;;;;;;5072691;28;20497;-65
2023/03/22 08:52:41;;;;;;;3.03;1.80;;;11.30;99.90;;;;;;5072530;28;20090;-65
2023/03/22 08:55:08;;;;;;;5.40;2.40;;;12.00;99.90;;;;;;5054818;28;20404;-65
2023/03/22 08:57:34;;;;;;;6.20;2.00;;;11.40;99.90;;;;;;5054461;28;20040;-64
2023/03/22 09:00:00;;;;;;;4.80;2.90;;;11.60;99.90;;;;;;5072628;28;20045;-64
2023/03/22 09:02:26;;;;;;;3.92;2.38;;;11.60;99.90;;;;;;5072278;28;20048;-65
2023/03/22 09:04:52;;;;;;;5.50;2.03;;;12.00;99.90;;;;;;5072220;28;20060;-64
2023/03/22 09:07:23;;;;;;;7.82;1.92;;;11.70;99.90;;;;;;5072238;28;20510;-65
2023/03/22 09:09:49;;;;;;;4.53;2.53;;;11.80;99.90;;;;;;5076319;28;20559;-64
2023/03/22 09:12:15;;;;;;;4.13;1.98;;;11.80;99.90;;;;;;5075946;28;20131;-65
2023/03/22 09:14:41;;;;;;;6.38;2.20;;;11.80;99.90;;;;;;5076198;28;20064;-65
2023/03/22 09:17:06;;;;;;;2.58;1.70;;;11.80;99.90;;;;;;5058290;28;20040;-66
2023/03/22 09:19:32;;;;;;;4.72;2.08;;;11.80;99.90;;;;;;5076161;28;20033;-65
2023/03/22 09:21:57;;;;;;;2.60;1.85;;;11.70;99.90;;;;;;5076104;28;20495;-64
2023/03/22 09:24:23;;;;;;;6.93;2.60;;;11.80;99.90;;;;;;5076153;28;20079;-64
2023/03/22 09:26:50;;;;;;;5.28;2.28;;;11.80;99.90;;;;;;5076024;28;20040;-64
2023/03/22 09:29:15;;;;;;;3.28;1.77;;;11.90;99.90;;;;;;5076042;28;20087;-65
2023/03/22 09:31:42;;;;;;;2.95;1.70;;;11.90;99.90;;;;;;5057726;28;20080;-64
2023/03/22 09:34:07;;;;;;;4.00;2.08;;;11.90;99.90;;;;;;5075981;28;20041;-64
2023/03/22 09:36:33;;;;;;;3.13;1.65;;;11.90;99.90;;;;;;5075629;28;20115;-65
2023/03/22 09:38:59;;;;;;;5.20;1.63;;;11.90;99.90;;;;;;5075844;28;20028;-64
2023/03/22 09:41:43;;;;;;;7.97;2.15;;;11.90;99.90;;;;;;5075545;28;20045;-65
2023/03/22 09:44:21;;;;;;;3.22;1.30;;;11.90;99.90;;;;;;5075724;28;20051;-64
2023/03/22 09:46:51;;;;;;;4.78;1.90;;;12.00;99.90;;;;;;5057564;28;20033;-64
2023/03/22 09:49:20;;;;;;;2.05;1.27;;;12.00;99.90;;;;;;5075611;28;20033;-65
2023/03/22 09:51:49;;;;;;;4.47;1.73;;;12.00;99.90;;;;;;5075559;28;20055;-65
2023/03/22 09:54:32;;;;;;;2.15;1.33;;;12.60;99.90;;;;;;5075613;28;20059;-64
2023/03/22 09:57:08;;;;;;;6.22;1.70;;;11.90;99.90;;;;;;5075528;28;20090;-64
2023/03/22 10:00:01;;;;;;;10.55;2.22;;;11.90;99.90;;;;;;5075434;28;20037;-64
2023/03/22 10:02:49;;;;;;;8.43;1.52;;;11.90;99.90;;;;;;5075172;28;20110;-64
2023/03/22 10:05:45;;;;;;;4.80;1.67;;;11.90;99.90;;;;;;5075081;28;20056;-64
2023/03/22 10:08:29;;;;;;;4.13;1.33;;;11.80;99.90;;;;;;5075340;28;20071;-64
2023/03/22 10:10:57;;;;;;;3.17;1.55;;;11.70;99.90;;;;;;5074942;28;20042;-65
2023/03/22 10:13:45;;;;;;;7.70;1.98;;;11.70;99.90;;;;;;5057035;28;20058;-64
2023/03/22 10:16:15;;;;;;;5.43;1.58;;;11.60;99.90;;;;;;5074892;28;20456;-63
2023/03/22 10:18:46;;;;;;;5.30;1.80;;;11.60;99.90;;;;;;5074811;28;20037;-63
2023/03/22 10:21:14;;;;;;;4.32;1.90;;;11.60;99.90;;;;;;5074285;28;20598;-63
2023/03/22 10:23:45;;;;;;;3.03;1.95;;;11.50;99.90;;;;;;5075009;28;20047;-63
2023/03/22 10:26:25;;;;;;;4.00;1.23;;;11.50;99.90;;;;;;5074989;28;20404;-63
2023/03/22 10:29:24;;;;;;;3.75;1.50;;;11.40;99.90;;;;;;5074832;28;20055;-63
2023/03/22 10:31:50;;;;;;;8.85;1.88;;;11.30;99.90;;;;;;5033219;28;20088;-64
2023/03/22 10:34:21;;;;;;;3.38;1.52;;;11.30;99.90;;;;;;5074859;28;20071;-65
2023/03/22 10:36:49;;;;;;;;;;;11.50;99.90;;;;;;5075176;28;20449;-63
2023/03/22 10:39:23;;;;;;;2.42;1.40;;;11.20;99.90;;;;;;5074833;28;20336;-63
2023/03/22 10:41:52;;;;;;;6.43;2.25;;;11.20;99.90;;;;;;5056454;28;20047;-64
2023/03/22 10:44:19;;;;;;;9.20;1.45;;;11.10;99.90;;;;;;5074297;28;20116;-64
2023/03/22 10:46:47;;;;;;;2.17;1.52;;;11.10;99.90;;;;;;5074478;28;20079;-64
2023/03/22 10:49:22;;;;;;;4.47;1.77;;;11.10;99.90;;;;;;5056316;28;20400;-64
2023/03/22 10:51:50;;;;;;;5.82;1.70;;;11.10;99.90;;;;;;5074352;28;20041;-64
2023/03/22 10:54:20;;;;;;;6.15;1.42;;;11.10;99.90;;;;;;5074412;28;20479;-64
2023/03/22 10:56:45;;;;;;;3.75;1.38;;;11.30;99.90;;;;;;5074412;28;20459;-64
2023/03/22 10:59:50;;;;;;;6.07;1.77;;;11.60;99.90;;;;;;5074339;28;20075;-64
2023/03/22 11:02:28;;;;;;;3.03;1.85;;;11.00;99.90;;;;;;5074237;28;20044;-64
2023/03/22 11:05:03;;;;;;;7.07;1.55;;;12.10;99.90;;;;;;5073802;28;20094;-64
2023/03/22 11:07:35;;;;;;;4.25;1.52;;;10.90;99.90;;;;;;5074162;28;20475;-64
2023/03/22 11:10:07;;;;;;;4.70;1.70;;;10.90;99.90;;;;;;5074018;28;20127;-65
2023/03/22 11:12:37;;;;;;;2.35;1.23;;;10.90;99.90;;;;;;5074006;28;20491;-66
2023/03/22 11:15:04;;;;;;;2.92;1.73;;;10.80;99.90;;;;;;5056040;28;20040;-64
2023/03/22 11:17:30;;;;;;;4.63;1.85;;;10.80;99.90;;;;;;5073689;28;20028;-65
2023/03/22 11:20:05;;;;;;;3.10;1.73;;;10.80;99.90;;;;;;5073926;28;20531;-66
2023/03/22 11:22:38;;;;;;;3.13;2.05;;;10.70;99.90;;;;;;5073846;28;20098;-63
2023/03/22 11:25:19;;;;;;;4.90;1.58;;;10.70;99.90;;;;;;5073765;28;20086;-63
2023/03/22 11:27:57;;;;;;;4.90;2.03;;;10.70;99.90;;;;;;5055810;28;20044;-64
2023/03/22 11:30:27;;;;;;;2.65;1.23;;;10.60;99.90;;;;;;5073492;28;20036;-64
2023/03/22 11:33:20;;;;;;;8.18;1.67;;;10.70;99.90;;;;;;5072793;28;20048;-65
2023/03/22 11:35:53;;;;;;;2.53;1.75;;;10.70;99.90;;;;;;5073526;28;20115;-66
2023/03/22 11:38:35;;;;;;;3.35;1.40;;;10.70;99.90;;;;;;5073567;28;20051;-67
2023/03/22 11:41:28;;;;;;;5.15;2.05;;;10.80;99.90;;;;;;5073207;28;20047;-67
2023/03/22 11:43:56;;;;;;;3.72;2.00;;;10.80;99.90;;;;;;5069100;28;20090;-67
2023/03/22 11:46:23;;;;;;;7.05;1.23;;;10.80;99.90;;;;;;5073255;28;20484;-67
2023/03/22 11:48:51;;;;;;;1.92;1.20;;;10.90;99.90;;;;;;5073000;28;20084;-67
2023/03/22 11:51:36;;;;;;;3.92;1.70;;;10.90;99.90;;;;;;5073379;28;20055;-66
2023/03/22 11:54:27;;;;;;;4.75;1.30;;;10.90;99.90;;;;;;5073318;28;20425;-67
2023/03/22 11:56:57;;;;;;;6.45;1.17;;;11.10;99.90;;;;;;5062200;28;20475;-65
2023/03/22 11:59:24;;;;;;;3.17;1.50;;;11.00;99.90;;;;;;5073245;28;20040;-66
2023/03/22 12:02:11;;;;;;;2.70;1.30;;;11.00;99.90;;;;;;5073163;28;20395;-66
2023/03/22 12:04:40;;;;;;;7.05;1.45;;;11.00;99.90;;;;;;5072912;28;20083;-66
2023/03/22 12:07:14;;;;;;;3.58;1.60;;;10.90;99.90;;;;;;5072934;28;20036;-66
2023/03/22 12:09:45;;;;;;;3.97;2.00;;;10.90;99.90;;;;;;5072910;28;20109;-66
2023/03/22 12:12:19;;;;;;;3.33;1.65;;;10.90;99.90;;;;;;5073091;28;20051;-66
2023/03/22 12:14:56;;;;;;;2.53;0.95;;;10.90;99.90;;;;;;5073051;28;20040;-66
2023/03/22 12:17:43;;;;;;;1.50;1.17;;;10.90;99.90;;;;;;5073061;28;20041;-66
2023/03/22 12:20:35;;;;;;;2.95;1.60;;;11.80;99.90;;;;;;5073074;28;20086;-66
2023/03/22 12:23:01;;;;;;;3.67;1.23;;;10.90;99.90;;;;;;5072940;28;20076;-66
2023/03/22 12:25:35;;;;;;;4.32;1.67;;;10.90;99.90;;;;;;5072892;28;20403;-66
2023/03/22 12:28:12;;;;;;;4.13;1.42;;;11.40;99.90;;;;;;5072891;28;20047;-65
2023/03/22 12:30:50;;;;;;;3.58;1.77;;;10.90;99.90;;;;;;5072872;28;20041;-67
2023/03/22 12:33:53;;;;;;;1.73;1.58;;;10.90;99.90;;;;;;5072585;28;20095;-65
2023/03/22 12:36:50;;;;;;;3.33;1.15;;;10.90;99.90;;;;;;5059730;28;20053;-67
2023/03/22 12:39:18;;;;;;;4.53;2.25;;;10.90;99.90;;;;;;5066019;28;20500;-67
2023/03/22 12:41:48;;;;;;;5.15;1.75;;;10.80;99.90;;;;;;5072492;28;20045;-67
2023/03/22 12:44:27;;;;;;;6.95;2.17;;;10.80;99.90;;;;;;5075866;28;20112;-66
2023/03/22 12:47:17;;;;;;;3.10;1.65;;;10.80;99.90;;;;;;5076856;28;20037;-66
2023/03/22 12:49:51;;;;;;;3.30;1.92;;;10.90;99.90;;;;;;5076910;28;20187;-67
2023/03/22 12:52:22;;;;;;;2.85;1.65;;;10.80;99.90;;;;;;5058405;28;20044;-67
2023/03/22 12:54:50;;;;;;;5.22;1.98;;;10.80;99.90;;;;;;5076767;28;20506;-67
2023/03/22 12:57:17;;;;;;;4.57;1.75;;;10.80;99.90;;;;;;5076336;28;20119;-67
2023/03/22 12:59:45;;;;;;;5.10;1.50;;;11.40;99.90;;;;;;5076672;28;20068;-67
2023/03/22 13:02:28;;;;;;;4.32;1.90;;;10.80;99.90;;;;;;5076354;28;20083;-67
2023/03/22 13:04:59;;;;;;;4.00;1.85;;;10.80;99.90;;;;;;5076176;28;20095;-67
2023/03/22 13:07:47;;;;;;;7.88;1.80;;;10.80;99.90;;;;;;5076502;28;20044;-67